UAE14X OMDB-OOMS
Flight info
| Callsign | UAE14X |
|---|---|
| Flight time | N/A |
| Altitude | 23000 |
| Route | ANVIX L223 TARDI N629 ELIVA DCT ITIKA |
| Aircraft | A35K/H-SDE2E3GHIJ3J4J5LM1ORWXY/LB1D1 |
Departure
| Time | N/A |
|---|---|
| Airport | Dubai International Airport (OMDB) |
Arrival
| Time | 2026-05-01 12:52 |
|---|---|
| Airport | Muscat International Airport (OOMS) |
| Time | Latitude | Longitude | Altitude | Speed | Heading |
|---|---|---|---|---|---|
| 2026-05-01 12:37 | 23.87384 | 57.70506 | 22982 ft | 485 kts | 79° |
| 2026-05-01 12:38 | 23.87997 | 57.74127 | 22965 ft | 484 kts | 85° |
| 2026-05-01 12:38 | 23.87923 | 57.77772 | 22984 ft | 480 kts | 100° |
| 2026-05-01 12:38 | 23.87369 | 57.81405 | 22975 ft | 479 kts | 103° |
| 2026-05-01 12:38 | 23.86759 | 57.84987 | 22982 ft | 479 kts | 103° |
| 2026-05-01 12:39 | 23.86165 | 57.88528 | 22982 ft | 479 kts | 103° |
| 2026-05-01 12:39 | 23.85578 | 57.92087 | 22982 ft | 479 kts | 103° |
| 2026-05-01 12:39 | 23.84993 | 57.95678 | 22976 ft | 479 kts | 102° |
| 2026-05-01 12:39 | 23.84409 | 57.99278 | 22974 ft | 479 kts | 102° |
| 2026-05-01 12:40 | 23.83832 | 58.02850 | 22894 ft | 474 kts | 102° |
| 2026-05-01 12:40 | 23.83261 | 58.06380 | 22526 ft | 474 kts | 102° |
| 2026-05-01 12:40 | 23.82686 | 58.09927 | 21784 ft | 476 kts | 102° |
| 2026-05-01 12:40 | 23.82106 | 58.13504 | 20802 ft | 479 kts | 102° |
| 2026-05-01 12:41 | 23.81523 | 58.17101 | 19836 ft | 482 kts | 102° |
| 2026-05-01 12:41 | 23.80937 | 58.20708 | 19005 ft | 481 kts | 102° |
| 2026-05-01 12:41 | 23.80357 | 58.24283 | 18289 ft | 477 kts | 102° |
| 2026-05-01 12:41 | 23.79778 | 58.27844 | 17517 ft | 472 kts | 102° |
| 2026-05-01 12:42 | 23.79205 | 58.31359 | 16789 ft | 467 kts | 102° |
| 2026-05-01 12:42 | 23.78646 | 58.34783 | 16074 ft | 461 kts | 102° |
| 2026-05-01 12:42 | 23.78087 | 58.38205 | 15380 ft | 455 kts | 102° |
| 2026-05-01 12:42 | 23.77535 | 58.41586 | 14703 ft | 449 kts | 102° |
| 2026-05-01 12:43 | 23.76990 | 58.44922 | 14023 ft | 443 kts | 102° |
| 2026-05-01 12:43 | 23.76449 | 58.48211 | 13337 ft | 437 kts | 102° |
| 2026-05-01 12:43 | 23.75911 | 58.51469 | 12509 ft | 434 kts | 101° |
| 2026-05-01 12:43 | 23.75377 | 58.54712 | 11777 ft | 429 kts | 101° |
| 2026-05-01 12:44 | 23.74857 | 58.57863 | 11268 ft | 418 kts | 102° |
| 2026-05-01 12:44 | 23.74452 | 58.60984 | 10464 ft | 416 kts | 95° |
| 2026-05-01 12:44 | 23.72562 | 58.66752 | 8709 ft | 405 kts | 131° |
| 2026-05-01 12:45 | 23.67948 | 58.69806 | 7142 ft | 385 kts | 172° |
| 2026-05-01 12:45 | 23.65304 | 58.69836 | 6240 ft | 380 kts | 192° |
| 2026-05-01 12:45 | 23.62858 | 58.68829 | 5308 ft | 375 kts | 213° |
| 2026-05-01 12:46 | 23.60961 | 58.66936 | 4447 ft | 369 kts | 235° |
| 2026-05-01 12:46 | 23.59867 | 58.64447 | 3563 ft | 365 kts | 256° |
| 2026-05-01 12:46 | 23.59563 | 58.61705 | 2819 ft | 359 kts | 268° |
| 2026-05-01 12:46 | 23.59442 | 58.59125 | 2811 ft | 332 kts | 268° |
| 2026-05-01 12:47 | 23.59359 | 58.56647 | 2474 ft | 317 kts | 274° |
| 2026-05-01 12:47 | 23.59949 | 58.54437 | 2131 ft | 302 kts | 300° |
| 2026-05-01 12:47 | 23.60937 | 58.52489 | 2013 ft | 283 kts | 296° |
| 2026-05-01 12:47 | 23.61268 | 58.50467 | 2008 ft | 266 kts | 269° |
| 2026-05-01 12:48 | 23.61010 | 58.48531 | 2001 ft | 248 kts | 261° |
| 2026-05-01 12:48 | 23.60747 | 58.46736 | 2005 ft | 231 kts | 266° |
| 2026-05-01 12:48 | 23.60620 | 58.45031 | 1931 ft | 219 kts | 269° |
| 2026-05-01 12:48 | 23.60507 | 58.43398 | 1866 ft | 213 kts | 267° |
| 2026-05-01 12:49 | 23.60382 | 58.41845 | 1815 ft | 196 kts | 267° |
| 2026-05-01 12:49 | 23.60265 | 58.40438 | 1769 ft | 177 kts | 268° |
| 2026-05-01 12:49 | 23.60160 | 58.39124 | 1519 ft | 175 kts | 268° |
| 2026-05-01 12:49 | 23.60061 | 58.37824 | 1309 ft | 166 kts | 269° |
| 2026-05-01 12:50 | 23.60184 | 58.36655 | 1317 ft | 152 kts | 281° |
| 2026-05-01 12:50 | 23.60391 | 58.35537 | 1137 ft | 151 kts | 286° |
| 2026-05-01 12:50 | 23.60646 | 58.34420 | 958 ft | 151 kts | 288° |
| 2026-05-01 12:50 | 23.60916 | 58.33307 | 670 ft | 151 kts | 286° |
| 2026-05-01 12:51 | 23.61068 | 58.32183 | 467 ft | 148 kts | 271° |
| 2026-05-01 12:51 | 23.60994 | 58.31033 | 299 ft | 153 kts | 265° |
| 2026-05-01 12:51 | 23.60838 | 58.28742 | 46 ft | 148 kts | 265° |
| 2026-05-01 12:52 | 23.60757 | 58.27799 | 43 ft | 84 kts | 264° |
| 2026-05-01 12:52 | 23.60522 | 58.26839 | 47 ft | 31 kts | 235° |
| 2026-05-01 12:52 | 23.60472 | 58.26790 | 47 ft | 0 kts | 189° |
| 2026-05-01 12:53 | 23.60461 | 58.26792 | 47 ft | 2 kts | 165° |
| 2026-05-01 12:54 | 23.60423 | 58.26828 | 47 ft | 14 kts | 128° |
| 2026-05-01 12:54 | 23.60449 | 58.27151 | 46 ft | 33 kts | 94° |
| 2026-05-01 12:54 | 23.60459 | 58.27397 | 45 ft | 33 kts | 85° |
| 2026-05-01 12:55 | 23.60297 | 58.27822 | 45 ft | 32 kts | 131° |
| 2026-05-01 12:55 | 23.60235 | 58.28014 | 44 ft | 22 kts | 77° |
| 2026-05-01 12:55 | 23.60245 | 58.28121 | 44 ft | 3 kts | 121° |
| 2026-05-01 12:56 | 23.60178 | 58.28162 | 44 ft | 13 kts | 182° |
| 2026-05-01 12:56 | 23.60150 | 58.28162 | 44 ft | 0 kts | 178° |